Time;durP1;ratioP1;P1;durP2;ratioP2;P2;SDS_P1;SDS_P2;PMS_P1;PMS_P2;Temp;Humidity;BMP_temperature;BMP_pressure;BME280_temperature;BME280_humidity;BME280_pressure;Samples;Min_cycle;Max_cycle;Signal;HPM_P1;HPM_P2
2022/03/02 00:00:30;;;;;;;3.10;1.10;;;24.40;75.10;;;;;;4945069;28;95241;-44
2022/03/02 00:03:01;;;;;;;2.10;1.27;;;24.50;75.10;;;;;;4963907;28;96009;-38
2022/03/02 00:05:32;;;;;;;4.82;1.55;;;24.50;75.10;;;;;;4966357;28;96767;-42
2022/03/02 00:08:03;;;;;;;;;;;24.50;75.20;;;;;;4963369;28;96246;-44
2022/03/02 00:10:33;;;;;;;2.60;1.05;;;24.50;75.30;;;;;;4964803;28;95428;-37
2022/03/02 00:13:04;;;;;;;;;;;24.50;75.40;;;;;;4960928;28;95780;-41
2022/03/02 00:15:34;;;;;;;1.85;1.08;;;24.60;75.30;;;;;;4953902;28;96968;-43
2022/03/02 00:18:06;;;;;;;2.25;1.20;;;24.60;75.20;;;;;;4944911;28;96604;-41
2022/03/02 00:20:37;;;;;;;4.15;1.50;;;24.70;75.10;;;;;;4945859;28;96134;-37
2022/03/02 00:23:08;;;;;;;1.63;1.00;;;24.80;74.80;;;;;;4956824;28;95928;-38
2022/03/02 00:25:40;;;;;;;5.68;1.25;;;24.80;74.50;;;;;;4943785;28;95917;-47
2022/03/02 00:28:10;;;;;;;;;;;24.80;74.20;;;;;;4946980;28;95786;-43
2022/03/02 00:30:45;;;;;;;1.98;0.82;;;24.90;74.40;;;;;;4944351;28;97707;-44
2022/03/02 00:33:16;;;;;;;2.75;1.10;;;24.90;74.10;;;;;;4945925;28;95910;-43
2022/03/02 00:35:47;;;;;;;1.83;1.25;;;24.90;73.80;;;;;;4954211;28;96102;-40
2022/03/02 00:38:18;;;;;;;3.72;1.30;;;24.90;73.60;;;;;;4949879;28;96277;-43
2022/03/02 00:40:49;;;;;;;1.55;1.00;;;25.00;73.70;;;;;;4935716;28;95890;-41
2022/03/02 00:43:20;;;;;;;1.88;0.90;;;25.00;73.50;;;;;;4936209;28;96137;-43
2022/03/02 00:45:51;;;;;;;1.35;0.90;;;25.00;73.40;;;;;;4945515;28;97167;-43
2022/03/02 00:48:21;;;;;;;;;;;25.00;73.30;;;;;;4951755;28;96169;-45
2022/03/02 00:50:52;;;;;;;1.83;0.88;;;25.10;73.20;;;;;;4965482;28;96029;-43
2022/03/02 00:53:24;;;;;;;1.13;1.02;;;25.10;73.10;;;;;;4954563;28;96136;-45
2022/03/02 00:55:54;;;;;;;;;;;25.10;72.90;;;;;;4961978;28;96521;-44
2022/03/02 00:58:23;;;;;;;2.17;1.17;;;25.10;72.90;;;;;;4960991;28;96074;-44
2022/03/02 01:00:54;;;;;;;2.53;0.95;;;25.10;72.80;;;;;;4948005;28;95962;-42
2022/03/02 01:03:25;;;;;;;4.13;1.20;;;25.20;72.80;;;;;;4928546;28;95477;-43
2022/03/02 01:05:57;;;;;;;3.22;1.13;;;25.20;72.70;;;;;;4921590;28;97512;-44
2022/03/02 01:08:28;;;;;;;2.15;1.02;;;25.20;73.40;;;;;;4925341;28;96319;-41
2022/03/02 01:10:59;;;;;;;2.75;1.13;;;25.30;72.50;;;;;;4926357;28;95787;-44
2022/03/02 01:13:32;;;;;;;2.22;1.10;;;25.30;69.80;;;;;;4915753;28;95953;-44
2022/03/02 01:16:04;;;;;;;2.83;1.20;;;25.30;72.40;;;;;;4921048;28;96683;-42
2022/03/02 01:18:36;;;;;;;3.40;1.25;;;25.40;72.30;;;;;;4926410;28;97788;-43
2022/03/02 01:21:06;;;;;;;3.35;1.48;;;25.40;72.30;;;;;;4927326;28;95790;-44
2022/03/02 01:23:38;;;;;;;3.60;1.27;;;25.50;72.20;;;;;;4925931;28;96516;-44
2022/03/02 01:26:09;;;;;;;1.80;1.05;;;25.50;72.10;;;;;;4925477;28;96346;-45
2022/03/02 01:28:40;;;;;;;2.30;1.00;;;25.50;72.00;;;;;;4922820;28;96073;-43
2022/03/02 01:31:11;;;;;;;1.90;1.13;;;25.60;72.00;;;;;;4916717;28;95991;-46
2022/03/02 01:33:42;;;;;;;1.42;1.05;;;25.60;71.90;;;;;;4926401;28;95634;-43
2022/03/02 01:36:13;;;;;;;1.27;0.80;;;25.70;71.70;;;;;;4921805;28;96123;-42
2022/03/02 01:38:44;;;;;;;1.20;0.70;;;25.70;71.60;;;;;;4926321;28;96786;-43
2022/03/02 01:41:17;;;;;;;2.85;1.08;;;25.70;71.70;;;;;;4910958;28;96194;-44
2022/03/02 01:43:49;;;;;;;2.20;0.88;;;25.70;71.40;;;;;;4923685;28;97227;-44
2022/03/02 01:46:20;;;;;;;1.48;1.00;;;25.80;71.40;;;;;;4922525;28;96239;-42
2022/03/02 01:48:50;;;;;;;1.42;0.98;;;25.80;71.30;;;;;;4926276;28;95784;-44
2022/03/02 01:51:21;;;;;;;0.95;0.82;;;25.90;71.30;;;;;;4924512;28;95977;-38
2022/03/02 01:53:52;;;;;;;;;;;25.90;71.00;;;;;;4925399;28;95960;-41
2022/03/02 01:56:22;;;;;;;1.67;1.17;;;26.00;71.20;;;;;;4935019;28;96464;-44
2022/03/02 01:58:53;;;;;;;2.03;1.00;;;26.00;71.00;;;;;;4924117;28;95817;-44
2022/03/02 02:01:24;;;;;;;1.35;0.82;;;26.10;70.90;;;;;;4925154;28;97534;-42
2022/03/02 02:03:58;;;;;;;3.35;0.80;;;26.10;70.80;;;;;;4925942;28;95814;-41
2022/03/02 02:06:29;;;;;;;1.63;1.02;;;26.10;70.70;;;;;;4926944;28;96916;-38
2022/03/02 02:09:00;;;;;;;1.85;0.82;;;26.20;70.60;;;;;;4919737;28;95916;-43
2022/03/02 02:11:32;;;;;;;2.90;0.82;;;26.20;70.60;;;;;;4922906;28;95462;-40
2022/03/02 02:14:03;;;;;;;1.15;0.60;;;26.20;70.60;;;;;;4924458;28;95959;-42
2022/03/02 02:16:36;;;;;;;1.90;0.82;;;26.30;70.60;;;;;;4918018;28;96485;-41
2022/03/02 02:19:07;;;;;;;1.95;0.98;;;26.30;70.50;;;;;;4923966;28;95751;-40
2022/03/02 02:21:38;;;;;;;2.50;0.88;;;26.40;70.50;;;;;;4921647;28;95612;-43
2022/03/02 02:24:09;;;;;;;0.98;0.80;;;26.40;70.30;;;;;;4923035;28;95661;-44
2022/03/02 02:26:41;;;;;;;2.72;0.93;;;26.40;70.30;;;;;;4923625;28;96881;-42
2022/03/02 02:29:12;;;;;;;;;;;26.40;70.40;;;;;;4923040;28;95901;-42
2022/03/02 02:31:43;;;;;;;3.40;1.03;;;26.40;70.30;;;;;;4919077;28;95866;-37
2022/03/02 02:34:16;;;;;;;0.73;0.73;;;26.50;71.30;;;;;;4925978;28;96076;-40
2022/03/02 02:36:47;;;;;;;1.00;0.60;;;26.60;71.00;;;;;;4924554;28;95938;-43
2022/03/02 02:39:20;;;;;;;1.60;0.93;;;26.60;71.00;;;;;;4922364;28;96167;-44
2022/03/02 02:41:50;;;;;;;0.57;0.57;;;26.60;71.00;;;;;;4907429;28;95777;-44
2022/03/02 02:44:22;;;;;;;0.80;0.65;;;26.80;71.20;;;;;;4921854;28;95922;-38
2022/03/02 02:46:51;;;;;;;;;;;26.80;71.10;;;;;;4919139;28;96113;-40
2022/03/02 02:49:21;;;;;;;0.98;0.60;;;26.90;70.90;;;;;;4927114;28;95945;-41
2022/03/02 02:51:54;;;;;;;1.25;0.63;;;26.90;71.10;;;;;;4927294;28;95991;-43
2022/03/02 02:54:28;;;;;;;3.75;0.80;;;26.90;71.10;;;;;;4925223;28;95597;-41
2022/03/02 02:56:57;;;;;;;1.17;0.85;;;26.80;69.80;;;;;;4932341;28;97143;-41
2022/03/02 02:59:28;;;;;;;0.82;0.60;;;26.50;69.90;;;;;;4923165;28;96523;-43
2022/03/02 03:02:00;;;;;;;1.75;0.80;;;26.40;70.50;;;;;;4919492;28;95949;-43
2022/03/02 03:04:31;;;;;;;1.13;1.02;;;26.40;70.10;;;;;;4923978;28;95426;-43
2022/03/02 03:07:03;;;;;;;2.78;1.02;;;26.30;69.80;;;;;;4924286;28;95888;-41
2022/03/02 03:09:35;;;;;;;1.15;0.65;;;26.40;69.40;;;;;;4924267;28;95908;-42
2022/03/02 03:12:09;;;;;;;0.77;0.77;;;26.30;68.30;;;;;;4918928;28;95896;-44
2022/03/02 03:14:41;;;;;;;1.63;0.85;;;26.30;67.30;;;;;;4923567;28;95732;-45
2022/03/02 03:17:13;;;;;;;3.55;0.98;;;26.20;66.30;;;;;;4916100;28;96420;-39
2022/03/02 03:19:45;;;;;;;2.38;0.68;;;26.10;65.60;;;;;;4921935;28;95949;-44
2022/03/02 03:22:17;;;;;;;1.60;1.33;;;26.10;64.40;;;;;;4924900;28;95960;-39
2022/03/02 03:24:49;;;;;;;1.65;0.88;;;25.90;63.60;;;;;;4926217;28;95781;-40
2022/03/02 03:27:21;;;;;;;0.95;0.85;;;25.80;63.20;;;;;;4921700;28;97174;-44
2022/03/02 03:29:53;;;;;;;0.75;0.60;;;25.70;62.30;;;;;;4921793;28;96398;-41
2022/03/02 03:32:26;;;;;;;1.38;0.80;;;25.60;61.80;;;;;;4919305;28;96010;-40
2022/03/02 03:34:59;;;;;;;1.73;0.70;;;25.50;61.30;;;;;;4920085;28;95744;-38
2022/03/02 03:37:31;;;;;;;1.00;0.73;;;25.40;60.80;;;;;;4925260;28;97097;-42
2022/03/02 03:40:05;;;;;;;1.75;0.60;;;25.30;60.40;;;;;;4919505;28;96104;-38
2022/03/02 03:42:36;;;;;;;0.68;0.65;;;25.30;59.90;;;;;;4906288;28;96616;-40
2022/03/02 03:45:08;;;;;;;2.17;0.60;;;25.20;59.40;;;;;;4926173;28;95823;-39
2022/03/02 03:47:39;;;;;;;0.73;0.70;;;25.10;59.20;;;;;;4908649;28;95885;-41
2022/03/02 03:50:11;;;;;;;1.60;0.70;;;25.10;58.90;;;;;;4923694;28;96255;-41
2022/03/02 03:52:42;;;;;;;1.70;0.60;;;25.00;58.50;;;;;;4923748;28;95602;-41
2022/03/02 03:55:14;;;;;;;1.27;0.70;;;24.90;58.30;;;;;;4920739;28;95585;-40
2022/03/02 03:57:44;;;;;;;0.60;0.60;;;25.10;59.00;;;;;;4918220;28;97418;-39
2022/03/02 04:00:18;;;;;;;0.93;0.70;;;25.20;59.20;;;;;;4919035;28;95799;-40
2022/03/02 04:02:50;;;;;;;5.82;0.90;;;25.30;59.50;;;;;;4930781;28;98274;-43
2022/03/02 04:05:21;;;;;;;2.00;1.00;;;25.40;59.60;;;;;;4923921;28;95979;-44
2022/03/02 04:07:51;;;;;;;;;;;25.40;59.10;;;;;;4921587;28;96251;-43
2022/03/02 04:10:21;;;;;;;2.53;0.60;;;25.50;60.10;;;;;;4922662;28;95985;-43
2022/03/02 04:12:53;;;;;;;1.08;0.57;;;25.60;60.40;;;;;;4925894;28;95758;-42
2022/03/02 04:15:24;;;;;;;0.60;0.43;;;25.80;60.70;;;;;;4919155;28;98321;-42
2022/03/02 04:17:56;;;;;;;2.65;0.40;;;25.90;61.20;;;;;;4946897;28;98423;-36
2022/03/02 04:20:26;;;;;;;0.98;0.40;;;26.00;61.70;;;;;;4945517;28;95933;-40
2022/03/02 04:22:56;;;;;;;;;;;26.20;61.80;;;;;;4947547;28;95878;-38
2022/03/02 04:25:28;;;;;;;0.83;0.60;;;26.20;62.10;;;;;;4944782;28;95663;-41
2022/03/02 04:27:59;;;;;;;0.40;0.35;;;26.30;62.70;;;;;;4945320;28;96794;-42
2022/03/02 04:30:30;;;;;;;0.68;0.50;;;26.30;62.70;;;;;;4939048;28;95618;-41
2022/03/02 04:33:02;;;;;;;0.68;0.60;;;26.40;63.10;;;;;;4946747;28;95833;-41
2022/03/02 04:35:34;;;;;;;0.50;0.50;;;26.30;60.20;;;;;;4946256;28;95925;-41
2022/03/02 04:38:05;;;;;;;0.63;0.50;;;26.00;57.40;;;;;;4942744;28;96752;-42
2022/03/02 04:40:37;;;;;;;0.55;0.50;;;25.70;56.70;;;;;;4938786;28;96122;-40
2022/03/02 04:43:09;;;;;;;1.00;0.52;;;25.60;56.10;;;;;;4926453;28;95916;-36
2022/03/02 04:45:39;;;;;;;0.95;0.50;;;25.50;55.90;;;;;;4940932;28;97026;-43
2022/03/02 04:48:09;;;;;;;2.00;0.70;;;25.40;55.50;;;;;;4948393;28;96681;-44
2022/03/02 04:50:39;;;;;;;2.17;0.50;;;25.30;55.00;;;;;;4943114;28;95689;-39
2022/03/02 04:53:11;;;;;;;0.85;0.60;;;25.20;54.70;;;;;;4942348;28;95450;-44
2022/03/02 04:55:42;;;;;;;0.70;0.50;;;25.10;54.50;;;;;;4943217;28;96003;-36
2022/03/02 04:58:13;;;;;;;2.00;0.95;;;25.20;54.90;;;;;;4946221;28;96111;-43
2022/03/02 05:00:47;;;;;;;0.82;0.80;;;25.20;55.00;;;;;;4942186;28;96105;-40
2022/03/02 05:03:24;;;;;;;2.78;1.00;;;25.20;54.10;;;;;;4945919;28;95317;-40
2022/03/02 05:05:55;;;;;;;1.52;1.42;;;25.20;54.70;;;;;;4947359;28;95645;-42
2022/03/02 05:08:27;;;;;;;1.27;1.00;;;25.30;55.80;;;;;;4947725;28;95926;-43
2022/03/02 05:10:58;;;;;;;1.00;1.00;;;25.50;56.10;;;;;;4942619;28;95430;-43
2022/03/02 05:13:30;;;;;;;1.17;1.17;;;25.70;56.40;;;;;;4945672;28;95981;-42
2022/03/02 05:16:02;;;;;;;1.75;0.98;;;25.90;56.70;;;;;;4937166;28;96121;-41
2022/03/02 05:18:33;;;;;;;1.70;1.10;;;26.00;56.80;;;;;;4946337;28;96529;-43
2022/03/02 05:21:05;;;;;;;0.70;0.70;;;26.10;57.90;;;;;;4946727;28;95591;-44
2022/03/02 05:23:38;;;;;;;1.10;0.70;;;26.20;57.40;;;;;;4944569;28;95254;-43
2022/03/02 05:26:09;;;;;;;2.28;0.55;;;26.30;57.60;;;;;;4949061;28;95857;-44
2022/03/02 05:28:44;;;;;;;3.45;0.70;;;26.10;54.80;;;;;;4942307;28;96520;-44
2022/03/02 05:31:16;;;;;;;1.92;1.05;;;25.80;54.60;;;;;;4940191;28;95814;-43
2022/03/02 05:33:51;;;;;;;0.82;0.82;;;25.90;52.70;;;;;;4948332;28;95847;-44
2022/03/02 05:36:27;;;;;;;0.70;0.70;;;26.00;56.40;;;;;;4940281;28;95691;-44
2022/03/02 05:38:59;;;;;;;0.50;0.50;;;26.10;56.60;;;;;;4945157;28;96283;-43
2022/03/02 05:41:33;;;;;;;1.35;0.60;;;26.20;56.90;;;;;;4929076;28;96055;-44
2022/03/02 05:44:04;;;;;;;0.88;0.40;;;26.30;57.10;;;;;;4935436;28;95922;-43
2022/03/02 05:46:38;;;;;;;0.80;0.57;;;26.40;57.40;;;;;;4939320;28;96313;-43
2022/03/02 05:49:09;;;;;;;0.93;0.40;;;26.50;57.80;;;;;;4945325;28;96064;-45
2022/03/02 05:51:41;;;;;;;0.52;0.40;;;26.60;57.80;;;;;;4945975;28;95750;-46
2022/03/02 05:54:11;;;;;;;3.97;0.50;;;26.60;57.20;;;;;;4943708;28;95867;-46
2022/03/02 05:56:41;;;;;;;2.65;0.70;;;26.20;54.90;;;;;;4944175;28;96121;-40
2022/03/02 05:59:15;;;;;;;3.13;0.50;;;26.10;54.70;;;;;;4946394;28;96576;-40
2022/03/02 06:01:49;;;;;;;0.88;0.40;;;26.00;54.30;;;;;;4937897;28;98256;-44
2022/03/02 06:04:20;;;;;;;1.13;0.52;;;26.00;55.10;;;;;;4947121;28;95397;-45
2022/03/02 06:06:50;;;;;;;0.85;0.65;;;26.20;55.70;;;;;;4947410;28;96090;-45
2022/03/02 06:09:20;;;;;;;1.98;0.60;;;26.30;56.00;;;;;;4946423;28;96400;-43
2022/03/02 06:11:52;;;;;;;0.98;0.57;;;26.40;56.20;;;;;;4942735;28;95874;-43
2022/03/02 06:14:23;;;;;;;2.15;0.68;;;26.40;54.70;;;;;;4944599;28;95742;-42
2022/03/02 06:16:55;;;;;;;1.73;0.73;;;26.10;52.90;;;;;;4938756;28;97948;-43
2022/03/02 06:19:26;;;;;;;1.02;0.65;;;26.10;53.90;;;;;;4941040;28;95987;-41
2022/03/02 06:22:00;;;;;;;1.60;0.40;;;26.20;54.50;;;;;;4941715;28;95783;-42
2022/03/02 06:24:32;;;;;;;0.95;0.70;;;26.20;53.30;;;;;;4946758;28;95692;-43
2022/03/02 06:27:04;;;;;;;1.77;0.50;;;26.20;54.30;;;;;;4945935;28;95905;-38
2022/03/02 06:29:34;;;;;;;1.63;0.70;;;26.30;54.80;;;;;;4945879;28;95939;-39
2022/03/02 06:32:06;;;;;;;0.80;0.80;;;26.40;55.00;;;;;;4936553;28;96219;-42
2022/03/02 06:34:39;;;;;;;0.82;0.80;;;26.50;55.40;;;;;;4945589;28;95797;-42
2022/03/02 06:37:11;;;;;;;1.38;0.80;;;26.60;55.80;;;;;;4944913;28;95832;-42
2022/03/02 06:39:43;;;;;;;1.25;0.70;;;26.70;56.20;;;;;;4943010;28;96723;-41
2022/03/02 06:42:25;;;;;;;1.00;0.90;;;26.70;56.30;;;;;;4926222;28;95920;-39
2022/03/02 06:45:04;;;;;;;0.63;0.63;;;26.80;56.90;;;;;;4940405;28;95896;-40
2022/03/02 06:47:45;;;;;;;1.50;0.70;;;26.80;57.10;;;;;;4944200;28;95288;-41
2022/03/02 06:50:18;;;;;;;0.93;0.47;;;26.90;57.40;;;;;;4945738;28;96769;-42
2022/03/02 06:52:52;;;;;;;0.80;0.52;;;26.90;57.50;;;;;;4945286;28;95335;-37
2022/03/02 06:55:23;;;;;;;2.17;0.38;;;26.90;58.00;;;;;;4949452;28;95821;-39
2022/03/02 06:57:54;;;;;;;;;;;26.70;56.70;;;;;;4947841;28;95722;-36
2022/03/02 07:00:26;;;;;;;1.10;0.60;;;26.40;57.10;;;;;;4939560;28;96521;-41
2022/03/02 07:03:10;;;;;;;0.80;0.70;;;26.30;58.00;;;;;;4943167;28;102810;-37
2022/03/02 07:05:42;;;;;;;6.35;1.17;;;26.10;57.20;;;;;;4942176;28;95756;-39
2022/03/02 07:08:11;;;;;;;;;;;26.00;57.30;;;;;;4945916;28;95871;-41
2022/03/02 07:10:41;;;;;;;4.55;2.67;;;25.90;57.40;;;;;;4944977;28;96213;-38
2022/03/02 07:13:12;;;;;;;15.00;10.45;;;25.80;57.50;;;;;;4941763;28;97932;-41
2022/03/02 07:15:43;;;;;;;33.35;19.52;;;25.70;57.70;;;;;;4932014;28;95502;-40
2022/03/02 07:18:15;;;;;;;41.83;22.27;;;25.60;58.50;;;;;;4945177;28;96106;-40
2022/03/02 07:20:50;;;;;;;40.95;21.15;;;25.60;59.20;;;;;;4939379;28;95900;-40
2022/03/02 07:23:24;;;;;;;40.08;20.38;;;25.60;59.40;;;;;;4937118;28;95693;-38
2022/03/02 07:26:00;;;;;;;31.65;18.77;;;25.50;59.50;;;;;;4939447;28;95982;-37
2022/03/02 07:28:34;;;;;;;26.98;16.42;;;25.50;59.70;;;;;;4936044;28;96035;-42
2022/03/02 07:31:09;;;;;;;27.15;16.20;;;25.40;59.70;;;;;;4927928;28;96599;-38
2022/03/02 07:33:42;;;;;;;29.40;15.77;;;25.30;59.70;;;;;;4934215;28;96249;-36
2022/03/02 07:36:13;;;;;;;21.13;14.20;;;25.30;59.90;;;;;;4934358;28;95722;-38
2022/03/02 07:38:45;;;;;;;23.92;12.82;;;25.30;60.10;;;;;;4936273;28;95425;-36
2022/03/02 07:41:16;;;;;;;17.35;11.65;;;25.20;60.70;;;;;;4928437;28;96628;-37
2022/03/02 07:43:48;;;;;;;19.35;11.57;;;25.20;61.00;;;;;;4929294;28;98599;-38
2022/03/02 07:46:18;;;;;;;19.67;11.88;;;25.20;61.10;;;;;;4927049;28;98298;-40
2022/03/02 07:48:49;;;;;;;21.33;11.90;;;25.10;61.10;;;;;;4944510;28;95785;-42
2022/03/02 07:51:22;;;;;;;17.80;10.50;;;25.10;61.10;;;;;;4942340;28;96055;-41
2022/03/02 07:53:56;;;;;;;19.42;10.90;;;25.00;61.10;;;;;;4940117;28;96133;-40
2022/03/02 07:56:28;;;;;;;16.63;9.80;;;25.00;61.10;;;;;;4943377;28;95634;-37
2022/03/02 07:59:05;;;;;;;16.63;9.70;;;24.90;61.00;;;;;;4947254;28;97275;-40
2022/03/02 08:01:45;;;;;;;15.60;8.85;;;24.90;61.30;;;;;;4939512;28;97115;-40
2022/03/02 08:04:16;;;;;;;16.65;9.23;;;24.90;62.20;;;;;;4944880;28;95812;-38
2022/03/02 08:06:47;;;;;;;13.82;8.45;;;24.90;63.00;;;;;;4944606;28;95741;-41
2022/03/02 08:09:18;;;;;;;16.25;8.20;;;24.90;63.60;;;;;;4944637;28;95870;-41
2022/03/02 08:11:50;;;;;;;13.25;7.90;;;24.90;64.20;;;;;;4946833;28;96679;-39
2022/03/02 08:14:24;;;;;;;11.68;7.47;;;24.80;63.90;;;;;;4946708;28;97839;-42
2022/03/02 08:16:57;;;;;;;13.80;7.82;;;24.80;63.70;;;;;;4941461;28;98120;-42
2022/03/02 08:19:30;;;;;;;13.23;7.55;;;24.70;63.60;;;;;;4948131;28;95633;-39
2022/03/02 08:22:16;;;;;;;11.52;7.85;;;24.70;64.10;;;;;;4946480;28;96226;-39
2022/03/02 08:25:06;;;;;;;11.77;6.78;;;24.70;64.70;;;;;;4940629;28;95711;-40
2022/03/02 08:27:44;;;;;;;13.07;7.32;;;24.70;65.30;;;;;;4947179;28;96071;-40
2022/03/02 08:30:15;;;;;;;9.57;6.38;;;24.70;65.90;;;;;;4940372;28;95542;-42
2022/03/02 08:32:50;;;;;;;11.00;6.18;;;24.60;66.50;;;;;;4945402;28;96288;-39
2022/03/02 08:35:25;;;;;;;9.70;6.88;;;24.60;66.90;;;;;;4943387;28;96105;-40
2022/03/02 08:37:56;;;;;;;12.75;6.30;;;24.60;67.40;;;;;;4947931;28;95338;-38
2022/03/02 08:40:27;;;;;;;7.97;5.82;;;24.60;67.70;;;;;;4941127;28;95932;-42
2022/03/02 08:43:01;;;;;;;9.88;6.13;;;24.60;68.10;;;;;;4931792;28;99434;-40
2022/03/02 08:45:32;;;;;;;9.23;5.60;;;24.70;67.90;;;;;;4935905;28;96028;-38
2022/03/02 08:48:05;;;;;;;6.80;5.55;;;24.70;67.70;;;;;;4946899;28;95296;-42
2022/03/02 08:50:36;;;;;;;8.35;4.90;;;24.80;67.70;;;;;;4944277;28;95835;-42
2022/03/02 08:53:07;;;;;;;8.93;4.95;;;24.80;68.00;;;;;;4949073;28;95967;-43
2022/03/02 08:55:38;;;;;;;7.00;4.78;;;24.80;68.30;;;;;;4941754;28;96110;-42
2022/03/02 08:58:10;;;;;;;8.90;4.47;;;24.80;68.50;;;;;;4945890;28;96024;-43
2022/03/02 09:00:41;;;;;;;8.23;4.45;;;24.70;68.70;;;;;;4941822;28;96894;-42
2022/03/02 09:03:16;;;;;;;7.82;4.30;;;24.80;68.90;;;;;;4944417;28;96591;-41
2022/03/02 09:05:49;;;;;;;6.93;3.92;;;24.80;69.00;;;;;;4942367;28;95456;-39
2022/03/02 09:08:20;;;;;;;7.05;4.50;;;24.70;69.20;;;;;;4946281;28;95882;-40
2022/03/02 09:10:50;;;;;;;7.07;3.83;;;24.70;69.40;;;;;;4947396;28;95363;-42
2022/03/02 09:13:25;;;;;;;6.65;4.10;;;24.70;69.50;;;;;;4949683;28;96048;-40
2022/03/02 09:15:57;;;;;;;6.78;3.72;;;24.70;69.70;;;;;;4940792;28;96049;-39
2022/03/02 09:18:28;;;;;;;7.28;4.00;;;24.60;69.80;;;;;;4945261;28;95930;-40
2022/03/02 09:21:03;;;;;;;6.03;3.85;;;24.60;69.90;;;;;;4947120;28;97490;-39
2022/03/02 09:23:43;;;;;;;6.88;4.22;;;24.60;70.00;;;;;;4944374;28;98712;-40
2022/03/02 09:26:18;;;;;;;5.60;3.60;;;24.60;70.00;;;;;;4936508;28;95453;-44
2022/03/02 09:28:52;;;;;;;6.80;3.40;;;24.60;70.10;;;;;;4938890;28;95774;-43
2022/03/02 09:31:23;;;;;;;6.22;4.05;;;24.60;70.20;;;;;;4936346;28;98651;-41
2022/03/02 09:33:58;;;;;;;6.80;3.83;;;24.50;70.20;;;;;;4946014;28;96659;-40
2022/03/02 09:36:33;;;;;;;9.05;3.30;;;24.50;70.30;;;;;;4938292;28;97128;-42
2022/03/02 09:39:08;;;;;;;6.53;3.17;;;24.50;70.30;;;;;;4946456;28;95811;-43
2022/03/02 09:41:49;;;;;;;6.70;3.20;;;24.50;70.40;;;;;;4931595;28;96042;-42
2022/03/02 09:44:21;;;;;;;;;;;24.50;70.50;;;;;;4944234;28;96162;-44
2022/03/02 09:46:56;;;;;;;4.20;2.72;;;24.40;70.50;;;;;;4945553;28;95607;-42
2022/03/02 09:49:31;;;;;;;5.30;3.08;;;24.50;67.60;;;;;;4949753;28;95428;-41
2022/03/02 09:52:09;;;;;;;5.32;2.83;;;24.40;70.60;;;;;;4950164;28;95846;-41
2022/03/02 09:54:42;;;;;;;6.43;3.15;;;24.40;70.70;;;;;;4948483;28;96204;-42
2022/03/02 09:57:18;;;;;;;5.35;2.65;;;24.40;70.80;;;;;;4948331;28;95804;-41
2022/03/02 10:00:08;;;;;;;4.70;2.20;;;24.30;70.80;;;;;;4938148;28;95780;-41
2022/03/02 10:02:43;;;;;;;4.45;2.70;;;24.30;70.90;;;;;;4935275;28;98016;-37
2022/03/02 10:05:20;;;;;;;4.13;2.35;;;24.20;71.00;;;;;;4937874;28;96160;-41
2022/03/02 10:07:59;;;;;;;7.30;2.80;;;24.20;71.30;;;;;;4935395;28;97036;-42
2022/03/02 10:10:36;;;;;;;6.55;2.45;;;23.70;72.20;;;;;;4943599;28;95660;-42
2022/03/02 10:13:10;;;;;;;10.05;2.42;;;23.50;74.20;;;;;;4943741;28;96036;-36
2022/03/02 10:15:41;;;;;;;8.88;2.60;;;23.40;73.80;;;;;;4937288;28;95902;-39
2022/03/02 10:18:14;;;;;;;5.80;2.33;;;23.30;74.40;;;;;;4944988;28;96176;-40
2022/03/02 10:20:49;;;;;;;7.88;2.50;;;22.90;74.90;;;;;;4941498;28;96208;-40
2022/03/02 10:23:33;;;;;;;7.72;2.15;;;22.50;76.90;;;;;;4937891;28;95734;-42
2022/03/02 10:26:03;;;;;;;7.63;2.60;;;22.40;77.30;;;;;;4934401;28;95971;-40
2022/03/02 10:28:58;;;;;;;6.47;1.88;;;22.50;76.40;;;;;;4940808;28;95333;-39
2022/03/02 10:31:44;;;;;;;6.60;2.05;;;22.30;77.10;;;;;;4939915;28;95392;-41
2022/03/02 10:34:28;;;;;;;12.75;2.67;;;22.50;76.10;;;;;;4946255;28;95900;-39
2022/03/02 10:37:04;;;;;;;5.85;2.08;;;22.50;75.90;;;;;;4939650;28;96754;-42
2022/03/02 10:39:51;;;;;;;6.43;2.45;;;22.30;77.30;;;;;;4935976;28;95894;-40
2022/03/02 10:42:37;;;;;;;6.38;2.10;;;22.00;77.90;;;;;;4926785;28;96109;-41
2022/03/02 10:45:21;;;;;;;8.80;2.33;;;22.00;77.80;;;;;;4939470;28;95679;-41
2022/03/02 10:48:03;;;;;;;6.68;1.88;;;22.10;77.50;;;;;;4942260;28;102353;-41
2022/03/02 10:50:36;;;;;;;8.63;2.28;;;21.90;78.00;;;;;;4934217;28;95474;-40
2022/03/02 10:53:13;;;;;;;10.35;2.60;;;21.60;79.40;;;;;;4935151;28;95754;-41
2022/03/02 10:55:45;;;;;;;8.27;2.42;;;21.40;79.80;;;;;;4940194;28;96703;-39
2022/03/02 10:58:20;;;;;;;6.47;1.80;;;21.40;80.90;;;;;;4931914;28;96341;-41
2022/03/02 11:00:52;;;;;;;9.90;2.38;;;21.20;81.60;;;;;;4929576;28;98642;-38
2022/03/02 11:03:27;;;;;;;8.93;1.98;;;21.20;81.70;;;;;;4943073;28;96012;-41
2022/03/02 11:06:01;;;;;;;7.72;2.20;;;21.10;82.10;;;;;;4935101;28;96112;-40
2022/03/02 11:08:34;;;;;;;7.35;1.88;;;20.80;82.50;;;;;;4936499;28;96625;-42
2022/03/02 11:11:11;;;;;;;9.80;2.10;;;20.80;83.10;;;;;;4932388;28;95598;-42
2022/03/02 11:13:44;;;;;;;9.35;2.38;;;20.70;83.80;;;;;;4937396;28;96838;-40
2022/03/02 11:16:21;;;;;;;4.28;1.63;;;20.80;83.80;;;;;;4932052;28;95363;-38
2022/03/02 11:18:52;;;;;;;4.88;1.98;;;21.20;82.20;;;;;;4938979;28;96215;-42
2022/03/02 11:21:30;;;;;;;5.55;2.20;;;21.50;80.90;;;;;;4936313;28;96018;-42
2022/03/02 11:24:04;;;;;;;10.43;2.15;;;21.50;80.30;;;;;;4934478;28;95731;-40
2022/03/02 11:26:41;;;;;;;5.20;1.63;;;21.50;80.20;;;;;;4934847;28;95908;-42
2022/03/02 11:29:14;;;;;;;6.95;2.33;;;21.50;80.30;;;;;;4936395;28;96205;-38
2022/03/02 11:31:50;;;;;;;9.25;2.33;;;21.40;80.20;;;;;;4931774;28;96314;-41
2022/03/02 11:34:27;;;;;;;6.50;1.98;;;21.30;80.60;;;;;;4940197;28;95770;-41
2022/03/02 11:37:01;;;;;;;6.18;2.55;;;21.20;81.00;;;;;;4954495;28;96155;-41
2022/03/02 11:39:32;;;;;;;5.68;2.03;;;21.00;81.20;;;;;;4935540;28;96276;-42
2022/03/02 11:42:06;;;;;;;5.13;2.08;;;20.80;82.50;;;;;;4927119;28;96794;-40
2022/03/02 11:44:42;;;;;;;8.43;2.28;;;20.70;82.80;;;;;;4938820;28;95853;-41
2022/03/02 11:47:20;;;;;;;7.18;1.58;;;20.60;83.50;;;;;;4937834;28;95327;-39
2022/03/02 11:49:57;;;;;;;8.23;2.90;;;20.70;83.20;;;;;;4948539;28;97149;-42
2022/03/02 11:52:32;;;;;;;7.88;1.95;;;20.90;82.40;;;;;;4946462;28;95941;-40
2022/03/02 11:55:09;;;;;;;7.93;2.53;;;21.10;81.70;;;;;;4949006;28;95702;-42
2022/03/02 11:57:51;;;;;;;7.30;2.63;;;20.80;82.40;;;;;;4949136;28;95537;-40
2022/03/02 12:00:44;;;;;;;8.40;2.20;;;20.70;82.70;;;;;;4936919;28;96251;-42
2022/03/02 12:03:15;;;;;;;14.55;3.17;;;20.80;82.90;;;;;;4950244;28;95940;-43
2022/03/02 12:05:46;;;;;;;12.13;3.05;;;20.70;82.80;;;;;;4948090;28;95783;-40
2022/03/02 12:08:17;;;;;;;;;;;20.70;83.00;;;;;;4948270;28;95995;-41
2022/03/02 12:10:57;;;;;;;8.20;2.10;;;20.70;83.30;;;;;;4946192;28;96455;-42
2022/03/02 12:13:28;;;;;;;8.80;2.23;;;20.70;83.10;;;;;;4957138;28;95975;-41
2022/03/02 12:16:01;;;;;;;6.13;1.98;;;20.70;83.50;;;;;;4940838;28;95819;-41
2022/03/02 12:18:38;;;;;;;6.72;1.92;;;20.80;83.00;;;;;;4944781;28;96054;-43
2022/03/02 12:21:18;;;;;;;11.38;2.10;;;20.80;82.90;;;;;;4943338;28;96837;-43
2022/03/02 12:23:54;;;;;;;8.23;2.38;;;20.80;82.80;;;;;;4943943;28;95604;-41
2022/03/02 12:26:25;;;;;;;11.10;2.80;;;20.80;83.30;;;;;;4948168;28;95756;-42
2022/03/02 12:28:57;;;;;;;11.63;3.03;;;21.10;82.40;;;;;;4947954;28;96249;-37
2022/03/02 12:31:33;;;;;;;6.55;2.28;;;21.20;81.80;;;;;;4944323;28;96556;-42
2022/03/02 12:34:14;;;;;;;6.35;2.33;;;21.20;82.30;;;;;;4946624;28;95830;-42
2022/03/02 12:36:45;;;;;;;12.93;3.58;;;21.30;81.10;;;;;;4950351;28;95736;-42
2022/03/02 12:39:16;;;;;;;8.48;2.58;;;21.30;81.70;;;;;;4950914;28;95691;-40
2022/03/02 12:41:48;;;;;;;11.02;2.75;;;21.20;82.00;;;;;;4935260;28;96090;-40
2022/03/02 12:44:19;;;;;;;;;;;21.20;82.00;;;;;;4944549;28;96190;-40
2022/03/02 12:46:54;;;;;;;7.00;2.17;;;21.20;82.50;;;;;;4946828;28;97205;-40
2022/03/02 12:49:26;;;;;;;7.97;2.85;;;21.30;81.50;;;;;;4951380;28;95738;-41
2022/03/02 12:51:58;;;;;;;5.15;2.00;;;21.40;80.80;;;;;;4950420;28;96742;-42
2022/03/02 12:54:31;;;;;;;6.97;2.08;;;21.50;79.80;;;;;;4950481;28;97774;-43
2022/03/02 12:57:07;;;;;;;7.38;2.50;;;21.60;79.70;;;;;;4949962;28;97038;-40
2022/03/02 12:59:38;;;;;;;8.73;2.92;;;21.50;78.30;;;;;;4949411;28;95468;-40
2022/03/02 13:02:20;;;;;;;5.82;2.72;;;21.50;78.50;;;;;;4942827;28;99082;-39
2022/03/02 13:05:11;;;;;;;6.20;2.80;;;21.60;74.50;;;;;;4950559;28;96349;-41
2022/03/02 13:08:13;;;;;;;10.65;2.00;;;21.50;78.30;;;;;;4950394;28;98061;-39
2022/03/02 13:10:48;;;;;;;6.45;2.35;;;21.50;78.60;;;;;;4947453;28;95889;-40
2022/03/02 13:13:40;;;;;;;12.65;2.97;;;21.40;79.60;;;;;;4944293;28;96112;-38
2022/03/02 13:16:22;;;;;;;;;;;21.10;80.90;;;;;;4944428;28;96999;-40
2022/03/02 13:18:58;;;;;;;12.77;2.80;;;21.10;81.00;;;;;;4949481;28;97109;-36